sensor_id;sensor_type;location;lat;lon;timestamp;P1;durP1;ratioP1;P2;durP2;ratioP2
16101;SDS011;56411;52.964;10.540;2024-02-16T05:25:46;10.88;;;4.90;;
16101;SDS011;56411;52.964;10.540;2024-02-16T05:28:13;11.02;;;5.03;;
16101;SDS011;56411;52.964;10.540;2024-02-16T05:30:40;13.80;;;5.00;;
16101;SDS011;56411;52.964;10.540;2024-02-16T05:33:07;12.13;;;5.00;;
16101;SDS011;56411;52.964;10.540;2024-02-16T05:35:34;11.73;;;5.40;;
16101;SDS011;56411;52.964;10.540;2024-02-16T05:38:05;9.85;;;5.05;;
16101;SDS011;56411;52.964;10.540;2024-02-16T05:40:47;11.65;;;5.03;;
16101;SDS011;56411;52.964;10.540;2024-02-16T05:43:21;10.60;;;4.77;;
16101;SDS011;56411;52.964;10.540;2024-02-16T05:45:49;10.57;;;4.33;;
16101;SDS011;56411;52.964;10.540;2024-02-16T05:48:17;9.67;;;4.60;;
16101;SDS011;56411;52.964;10.540;2024-02-16T05:50:46;9.93;;;4.40;;
16101;SDS011;56411;52.964;10.540;2024-02-16T05:53:14;11.88;;;4.78;;
16101;SDS011;56411;52.964;10.540;2024-02-16T05:55:41;10.00;;;4.50;;
16101;SDS011;56411;52.964;10.540;2024-02-16T05:58:11;8.23;;;4.50;;
16101;SDS011;56411;52.964;10.540;2024-02-16T06:00:39;9.83;;;4.07;;
16101;SDS011;56411;52.964;10.540;2024-02-16T06:03:07;12.20;;;4.40;;
16101;SDS011;56411;52.964;10.540;2024-02-16T06:05:35;9.50;;;4.28;;
16101;SDS011;56411;52.964;10.540;2024-02-16T06:08:02;10.27;;;4.23;;
16101;SDS011;56411;52.964;10.540;2024-02-16T06:10:30;9.90;;;4.43;;
16101;SDS011;56411;52.964;10.540;2024-02-16T06:12:57;11.67;;;4.43;;
16101;SDS011;56411;52.964;10.540;2024-02-16T06:15:26;11.37;;;4.90;;
16101;SDS011;56411;52.964;10.540;2024-02-16T06:17:53;9.60;;;4.00;;
16101;SDS011;56411;52.964;10.540;2024-02-16T06:20:21;8.38;;;4.10;;
16101;SDS011;56411;52.964;10.540;2024-02-16T06:22:48;9.87;;;3.70;;
16101;SDS011;56411;52.964;10.540;2024-02-16T06:25:15;8.77;;;3.60;;
16101;SDS011;56411;52.964;10.540;2024-02-16T06:27:43;7.95;;;4.07;;
16101;SDS011;56411;52.964;10.540;2024-02-16T06:30:11;8.10;;;3.77;;
16101;SDS011;56411;52.964;10.540;2024-02-16T06:32:41;10.63;;;3.97;;
16101;SDS011;56411;52.964;10.540;2024-02-16T06:35:08;8.00;;;3.35;;
16101;SDS011;56411;52.964;10.540;2024-02-16T06:37:36;9.87;;;4.17;;
16101;SDS011;56411;52.964;10.540;2024-02-16T06:40:04;8.70;;;4.00;;
16101;SDS011;56411;52.964;10.540;2024-02-16T06:42:35;7.83;;;3.73;;
16101;SDS011;56411;52.964;10.540;2024-02-16T06:45:02;8.87;;;3.83;;
16101;SDS011;56411;52.964;10.540;2024-02-16T06:47:30;8.38;;;3.40;;
16101;SDS011;56411;52.964;10.540;2024-02-16T06:49:59;8.60;;;3.50;;
16101;SDS011;56411;52.964;10.540;2024-02-16T06:52:26;8.50;;;3.40;;
16101;SDS011;56411;52.964;10.540;2024-02-16T06:54:53;8.90;;;3.43;;
16101;SDS011;56411;52.964;10.540;2024-02-16T06:57:20;12.05;;;3.63;;
16101;SDS011;56411;52.964;10.540;2024-02-16T06:59:48;11.20;;;3.87;;
16101;SDS011;56411;52.964;10.540;2024-02-16T07:02:15;8.70;;;3.23;;
16101;SDS011;56411;52.964;10.540;2024-02-16T07:04:43;8.02;;;3.67;;
16101;SDS011;56411;52.964;10.540;2024-02-16T07:07:12;9.93;;;3.67;;
16101;SDS011;56411;52.964;10.540;2024-02-16T07:09:39;8.32;;;3.72;;
16101;SDS011;56411;52.964;10.540;2024-02-16T07:12:08;8.20;;;3.30;;
16101;SDS011;56411;52.964;10.540;2024-02-16T07:14:46;11.43;;;4.60;;
16101;SDS011;56411;52.964;10.540;2024-02-16T07:17:15;10.87;;;3.83;;
16101;SDS011;56411;52.964;10.540;2024-02-16T07:19:43;9.93;;;3.80;;
16101;SDS011;56411;52.964;10.540;2024-02-16T07:22:10;7.78;;;3.70;;
16101;SDS011;56411;52.964;10.540;2024-02-16T07:24:44;10.70;;;4.00;;
16101;SDS011;56411;52.964;10.540;2024-02-16T07:27:33;9.20;;;3.40;;
16101;SDS011;56411;52.964;10.540;2024-02-16T07:30:11;8.38;;;3.60;;
16101;SDS011;56411;52.964;10.540;2024-02-16T07:32:41;8.85;;;3.30;;
16101;SDS011;56411;52.964;10.540;2024-02-16T07:35:11;10.07;;;3.80;;
16101;SDS011;56411;52.964;10.540;2024-02-16T07:37:49;7.28;;;3.20;;
16101;SDS011;56411;52.964;10.540;2024-02-16T07:40:20;10.65;;;3.42;;
16101;SDS011;56411;52.964;10.540;2024-02-16T07:42:49;8.43;;;3.33;;
16101;SDS011;56411;52.964;10.540;2024-02-16T07:45:18;7.38;;;3.35;;
16101;SDS011;56411;52.964;10.540;2024-02-16T07:47:45;8.95;;;3.58;;
16101;SDS011;56411;52.964;10.540;2024-02-16T07:50:13;8.25;;;3.45;;
16101;SDS011;56411;52.964;10.540;2024-02-16T07:52:40;8.57;;;3.70;;
16101;SDS011;56411;52.964;10.540;2024-02-16T07:55:09;9.07;;;3.17;;
16101;SDS011;56411;52.964;10.540;2024-02-16T07:57:40;6.88;;;3.03;;
16101;SDS011;56411;52.964;10.540;2024-02-16T08:00:18;10.30;;;3.50;;
16101;SDS011;56411;52.964;10.540;2024-02-16T08:02:46;7.53;;;3.10;;
16101;SDS011;56411;52.964;10.540;2024-02-16T08:05:14;7.25;;;3.13;;
16101;SDS011;56411;52.964;10.540;2024-02-16T08:07:44;9.88;;;3.40;;
16101;SDS011;56411;52.964;10.540;2024-02-16T08:10:13;8.80;;;3.40;;
16101;SDS011;56411;52.964;10.540;2024-02-16T08:12:43;7.13;;;3.25;;
16101;SDS011;56411;52.964;10.540;2024-02-16T08:15:10;10.18;;;3.45;;
16101;SDS011;56411;52.964;10.540;2024-02-16T08:17:39;8.25;;;3.13;;
16101;SDS011;56411;52.964;10.540;2024-02-16T08:20:08;7.10;;;2.90;;
16101;SDS011;56411;52.964;10.540;2024-02-16T08:22:37;7.35;;;3.20;;
16101;SDS011;56411;52.964;10.540;2024-02-16T08:25:14;9.57;;;3.28;;
16101;SDS011;56411;52.964;10.540;2024-02-16T08:27:54;9.55;;;3.70;;
16101;SDS011;56411;52.964;10.540;2024-02-16T08:30:22;6.93;;;2.83;;
16101;SDS011;56411;52.964;10.540;2024-02-16T08:32:51;7.50;;;3.17;;
16101;SDS011;56411;52.964;10.540;2024-02-16T08:35:30;7.20;;;3.22;;
16101;SDS011;56411;52.964;10.540;2024-02-16T08:37:57;8.00;;;3.45;;
16101;SDS011;56411;52.964;10.540;2024-02-16T08:40:25;7.63;;;3.22;;
16101;SDS011;56411;52.964;10.540;2024-02-16T08:45:58;5.43;;;2.78;;
16101;SDS011;56411;52.964;10.540;2024-02-16T08:48:27;8.85;;;3.60;;
16101;SDS011;56411;52.964;10.540;2024-02-16T08:51:04;7.97;;;3.10;;
16101;SDS011;56411;52.964;10.540;2024-02-16T09:00:08;6.50;;;2.90;;
16101;SDS011;56411;52.964;10.540;2024-02-16T09:02:37;7.57;;;3.30;;
16101;SDS011;56411;52.964;10.540;2024-02-16T09:05:10;6.40;;;2.97;;
16101;SDS011;56411;52.964;10.540;2024-02-16T09:07:38;9.63;;;3.30;;
16101;SDS011;56411;52.964;10.540;2024-02-16T09:10:07;5.97;;;2.60;;
16101;SDS011;56411;52.964;10.540;2024-02-16T09:12:35;8.20;;;3.50;;
16101;SDS011;56411;52.964;10.540;2024-02-16T09:15:15;10.07;;;3.38;;
16101;SDS011;56411;52.964;10.540;2024-02-16T09:17:43;6.25;;;3.00;;
16101;SDS011;56411;52.964;10.540;2024-02-16T09:20:13;7.13;;;2.90;;
16101;SDS011;56411;52.964;10.540;2024-02-16T09:22:47;7.32;;;2.88;;
16101;SDS011;56411;52.964;10.540;2024-02-16T09:25:15;5.82;;;2.67;;
16101;SDS011;56411;52.964;10.540;2024-02-16T09:27:43;5.82;;;2.83;;
16101;SDS011;56411;52.964;10.540;2024-02-16T09:30:11;5.85;;;2.67;;
16101;SDS011;56411;52.964;10.540;2024-02-16T09:32:41;6.20;;;2.50;;
16101;SDS011;56411;52.964;10.540;2024-02-16T09:35:09;6.68;;;2.80;;
16101;SDS011;56411;52.964;10.540;2024-02-16T09:37:49;6.65;;;2.80;;
16101;SDS011;56411;52.964;10.540;2024-02-16T09:40:17;5.72;;;2.60;;
16101;SDS011;56411;52.964;10.540;2024-02-16T09:42:47;8.18;;;2.70;;
16101;SDS011;56411;52.964;10.540;2024-02-16T09:45:16;7.00;;;2.95;;
16101;SDS011;56411;52.964;10.540;2024-02-16T09:47:49;6.05;;;2.65;;
16101;SDS011;56411;52.964;10.540;2024-02-16T09:50:24;8.00;;;2.55;;
16101;SDS011;56411;52.964;10.540;2024-02-16T09:52:52;6.57;;;2.50;;
16101;SDS011;56411;52.964;10.540;2024-02-16T09:55:23;9.50;;;2.97;;
16101;SDS011;56411;52.964;10.540;2024-02-16T09:57:58;5.47;;;2.67;;
16101;SDS011;56411;52.964;10.540;2024-02-16T10:00:32;7.82;;;2.40;;
16101;SDS011;56411;52.964;10.540;2024-02-16T10:03:25;5.97;;;2.50;;
16101;SDS011;56411;52.964;10.540;2024-02-16T10:06:09;6.60;;;2.65;;
16101;SDS011;56411;52.964;10.540;2024-02-16T10:08:48;5.47;;;2.50;;
16101;SDS011;56411;52.964;10.540;2024-02-16T10:11:39;6.53;;;2.70;;
16101;SDS011;56411;52.964;10.540;2024-02-16T10:14:30;5.03;;;2.45;;
16101;SDS011;56411;52.964;10.540;2024-02-16T10:17:56;5.38;;;2.53;;
16101;SDS011;56411;52.964;10.540;2024-02-16T10:20:26;7.22;;;2.63;;
16101;SDS011;56411;52.964;10.540;2024-02-16T10:23:04;7.00;;;2.90;;
16101;SDS011;56411;52.964;10.540;2024-02-16T10:25:32;5.57;;;2.72;;
16101;SDS011;56411;52.964;10.540;2024-02-16T10:28:01;6.55;;;2.50;;
16101;SDS011;56411;52.964;10.540;2024-02-16T10:30:34;7.00;;;2.42;;
16101;SDS011;56411;52.964;10.540;2024-02-16T10:33:03;4.78;;;2.40;;
16101;SDS011;56411;52.964;10.540;2024-02-16T10:35:35;7.13;;;2.60;;
16101;SDS011;56411;52.964;10.540;2024-02-16T10:38:03;6.03;;;2.40;;
16101;SDS011;56411;52.964;10.540;2024-02-16T10:40:37;7.43;;;2.53;;
16101;SDS011;56411;52.964;10.540;2024-02-16T10:43:06;8.02;;;2.70;;
16101;SDS011;56411;52.964;10.540;2024-02-16T10:45:36;6.13;;;2.53;;
16101;SDS011;56411;52.964;10.540;2024-02-16T10:48:14;6.57;;;2.65;;
16101;SDS011;56411;52.964;10.540;2024-02-16T10:50:44;6.97;;;2.75;;
16101;SDS011;56411;52.964;10.540;2024-02-16T10:53:17;6.72;;;2.50;;
16101;SDS011;56411;52.964;10.540;2024-02-16T10:55:49;5.32;;;2.45;;
16101;SDS011;56411;52.964;10.540;2024-02-16T10:58:17;4.78;;;2.50;;
16101;SDS011;56411;52.964;10.540;2024-02-16T11:00:48;5.55;;;2.65;;
16101;SDS011;56411;52.964;10.540;2024-02-16T11:03:21;6.03;;;2.70;;
16101;SDS011;56411;52.964;10.540;2024-02-16T11:05:53;7.53;;;2.80;;
16101;SDS011;56411;52.964;10.540;2024-02-16T11:08:23;6.35;;;2.60;;
16101;SDS011;56411;52.964;10.540;2024-02-16T11:13:37;5.68;;;2.50;;
16101;SDS011;56411;52.964;10.540;2024-02-16T11:16:07;4.85;;;2.38;;
16101;SDS011;56411;52.964;10.540;2024-02-16T11:18:39;5.43;;;2.55;;
16101;SDS011;56411;52.964;10.540;2024-02-16T11:21:13;6.10;;;2.50;;
16101;SDS011;56411;52.964;10.540;2024-02-16T11:24:06;10.07;;;2.60;;
16101;SDS011;56411;52.964;10.540;2024-02-16T11:26:54;6.20;;;2.63;;
16101;SDS011;56411;52.964;10.540;2024-02-16T11:30:19;7.05;;;2.40;;
16101;SDS011;56411;52.964;10.540;2024-02-16T11:32:46;6.75;;;2.60;;
16101;SDS011;56411;52.964;10.540;2024-02-16T11:35:14;5.13;;;2.40;;
16101;SDS011;56411;52.964;10.540;2024-02-16T11:37:43;9.38;;;2.50;;
16101;SDS011;56411;52.964;10.540;2024-02-16T11:40:15;5.03;;;2.67;;
16101;SDS011;56411;52.964;10.540;2024-02-16T11:43:11;6.60;;;2.72;;
16101;SDS011;56411;52.964;10.540;2024-02-16T11:49:58;5.20;;;2.63;;
16101;SDS011;56411;52.964;10.540;2024-02-16T11:53:04;6.53;;;2.50;;
16101;SDS011;56411;52.964;10.540;2024-02-16T11:55:33;4.32;;;2.28;;
16101;SDS011;56411;52.964;10.540;2024-02-16T11:58:01;7.03;;;2.53;;
16101;SDS011;56411;52.964;10.540;2024-02-16T12:00:46;5.03;;;2.45;;
16101;SDS011;56411;52.964;10.540;2024-02-16T12:03:50;4.95;;;2.50;;
16101;SDS011;56411;52.964;10.540;2024-02-16T12:06:34;5.68;;;2.53;;
16101;SDS011;56411;52.964;10.540;2024-02-16T12:09:07;6.88;;;2.65;;
16101;SDS011;56411;52.964;10.540;2024-02-16T12:11:35;6.75;;;2.75;;
16101;SDS011;56411;52.964;10.540;2024-02-16T12:14:14;8.00;;;2.75;;
16101;SDS011;56411;52.964;10.540;2024-02-16T12:16:51;6.80;;;2.78;;
16101;SDS011;56411;52.964;10.540;2024-02-16T12:19:29;4.47;;;2.55;;
16101;SDS011;56411;52.964;10.540;2024-02-16T12:22:00;7.60;;;2.63;;
16101;SDS011;56411;52.964;10.540;2024-02-16T12:24:54;4.45;;;2.38;;
16101;SDS011;56411;52.964;10.540;2024-02-16T12:27:30;6.72;;;2.80;;
16101;SDS011;56411;52.964;10.540;2024-02-16T12:30:44;7.35;;;2.83;;
16101;SDS011;56411;52.964;10.540;2024-02-16T12:39:26;5.72;;;2.60;;
16101;SDS011;56411;52.964;10.540;2024-02-16T12:43:47;6.15;;;2.95;;
16101;SDS011;56411;52.964;10.540;2024-02-16T12:46:49;8.30;;;3.00;;
16101;SDS011;56411;52.964;10.540;2024-02-16T12:52:42;7.05;;;2.85;;
16101;SDS011;56411;52.964;10.540;2024-02-16T12:56:48;6.93;;;2.88;;
16101;SDS011;56411;52.964;10.540;2024-02-16T12:59:06;8.90;;;2.80;;
16101;SDS011;56411;52.964;10.540;2024-02-16T13:01:59;6.97;;;2.60;;
16101;SDS011;56411;52.964;10.540;2024-02-16T13:04:53;6.13;;;2.50;;
16101;SDS011;56411;52.964;10.540;2024-02-16T13:11:03;6.55;;;2.90;;
16101;SDS011;56411;52.964;10.540;2024-02-16T13:16:10;10.10;;;3.17;;
16101;SDS011;56411;52.964;10.540;2024-02-16T13:18:40;9.43;;;3.30;;
16101;SDS011;56411;52.964;10.540;2024-02-16T13:24:02;6.97;;;3.35;;
16101;SDS011;56411;52.964;10.540;2024-02-16T13:26:47;8.48;;;3.15;;
16101;SDS011;56411;52.964;10.540;2024-02-16T13:29:25;6.60;;;2.95;;
16101;SDS011;56411;52.964;10.540;2024-02-16T13:32:17;9.48;;;3.38;;
16101;SDS011;56411;52.964;10.540;2024-02-16T13:34:52;7.65;;;3.20;;
16101;SDS011;56411;52.964;10.540;2024-02-16T13:37:35;7.35;;;3.45;;
16101;SDS011;56411;52.964;10.540;2024-02-16T13:40:20;8.23;;;3.08;;
16101;SDS011;56411;52.964;10.540;2024-02-16T13:43:02;7.80;;;3.05;;
16101;SDS011;56411;52.964;10.540;2024-02-16T13:46:10;9.13;;;3.30;;
16101;SDS011;56411;52.964;10.540;2024-02-16T13:48:40;8.65;;;3.22;;
16101;SDS011;56411;52.964;10.540;2024-02-16T13:51:24;8.45;;;3.33;;
16101;SDS011;56411;52.964;10.540;2024-02-16T13:57:13;9.30;;;3.42;;
16101;SDS011;56411;52.964;10.540;2024-02-16T13:59:43;8.73;;;3.50;;
16101;SDS011;56411;52.964;10.540;2024-02-16T14:02:12;9.63;;;3.88;;
16101;SDS011;56411;52.964;10.540;2024-02-16T14:05:00;10.18;;;3.28;;
16101;SDS011;56411;52.964;10.540;2024-02-16T14:08:10;8.13;;;3.97;;
16101;SDS011;56411;52.964;10.540;2024-02-16T14:10:50;8.55;;;3.30;;
16101;SDS011;56411;52.964;10.540;2024-02-16T14:13:21;7.80;;;3.40;;
16101;SDS011;56411;52.964;10.540;2024-02-16T14:16:05;8.60;;;3.33;;
16101;SDS011;56411;52.964;10.540;2024-02-16T14:18:45;8.20;;;3.83;;
16101;SDS011;56411;52.964;10.540;2024-02-16T14:21:30;10.93;;;3.63;;
16101;SDS011;56411;52.964;10.540;2024-02-16T14:24:06;9.43;;;3.42;;
16101;SDS011;56411;52.964;10.540;2024-02-16T14:26:37;12.23;;;3.72;;
16101;SDS011;56411;52.964;10.540;2024-02-16T14:29:33;10.82;;;3.83;;
16101;SDS011;56411;52.964;10.540;2024-02-16T14:32:06;10.45;;;4.18;;
16101;SDS011;56411;52.964;10.540;2024-02-16T14:34:47;9.75;;;3.85;;
16101;SDS011;56411;52.964;10.540;2024-02-16T14:37:18;8.70;;;3.78;;
16101;SDS011;56411;52.964;10.540;2024-02-16T14:39:47;8.30;;;3.60;;
16101;SDS011;56411;52.964;10.540;2024-02-16T14:42:16;9.98;;;3.50;;
16101;SDS011;56411;52.964;10.540;2024-02-16T14:44:45;7.90;;;3.63;;
16101;SDS011;56411;52.964;10.540;2024-02-16T14:47:27;10.05;;;4.63;;
16101;SDS011;56411;52.964;10.540;2024-02-16T14:50:01;11.18;;;4.85;;
16101;SDS011;56411;52.964;10.540;2024-02-16T14:56:02;11.13;;;4.55;;
16101;SDS011;56411;52.964;10.540;2024-02-16T14:58:42;10.02;;;4.55;;
16101;SDS011;56411;52.964;10.540;2024-02-16T15:01:32;9.80;;;4.75;;
16101;SDS011;56411;52.964;10.540;2024-02-16T15:04:07;11.48;;;4.97;;
16101;SDS011;56411;52.964;10.540;2024-02-16T15:06:35;12.60;;;4.53;;
16101;SDS011;56411;52.964;10.540;2024-02-16T15:09:15;12.35;;;5.03;;
16101;SDS011;56411;52.964;10.540;2024-02-16T15:11:58;11.25;;;4.75;;
16101;SDS011;56411;52.964;10.540;2024-02-16T15:14:26;10.43;;;4.97;;
16101;SDS011;56411;52.964;10.540;2024-02-16T15:16:54;10.55;;;4.60;;
16101;SDS011;56411;52.964;10.540;2024-02-16T15:19:22;13.05;;;5.10;;
16101;SDS011;56411;52.964;10.540;2024-02-16T15:21:53;11.80;;;4.88;;
16101;SDS011;56411;52.964;10.540;2024-02-16T15:27:42;10.35;;;4.68;;
16101;SDS011;56411;52.964;10.540;2024-02-16T15:30:37;12.43;;;4.90;;
16101;SDS011;56411;52.964;10.540;2024-02-16T15:33:04;11.80;;;5.07;;
16101;SDS011;56411;52.964;10.540;2024-02-16T16:16:48;15.75;;;7.75;;
16101;SDS011;56411;52.964;10.540;2024-02-16T16:19:19;14.35;;;7.43;;
16101;SDS011;56411;52.964;10.540;2024-02-16T16:21:56;12.48;;;6.75;;
16101;SDS011;56411;52.964;10.540;2024-02-16T16:24:26;13.65;;;7.53;;
16101;SDS011;56411;52.964;10.540;2024-02-16T16:26:53;15.23;;;7.18;;
16101;SDS011;56411;52.964;10.540;2024-02-16T16:29:21;11.52;;;6.57;;
16101;SDS011;56411;52.964;10.540;2024-02-16T16:35:00;14.55;;;7.45;;
16101;SDS011;56411;52.964;10.540;2024-02-16T16:37:28;14.40;;;7.80;;
16101;SDS011;56411;52.964;10.540;2024-02-16T16:39:55;14.27;;;7.63;;
16101;SDS011;56411;52.964;10.540;2024-02-16T16:42:22;13.40;;;7.38;;
16101;SDS011;56411;52.964;10.540;2024-02-16T16:44:50;14.18;;;7.97;;
16101;SDS011;56411;52.964;10.540;2024-02-16T16:47:18;13.50;;;7.70;;
16101;SDS011;56411;52.964;10.540;2024-02-16T16:49:45;13.43;;;7.45;;
16101;SDS011;56411;52.964;10.540;2024-02-16T16:52:13;14.55;;;7.95;;
16101;SDS011;56411;52.964;10.540;2024-02-16T16:54:40;13.65;;;8.05;;
16101;SDS011;56411;52.964;10.540;2024-02-16T16:57:08;14.07;;;8.52;;
16101;SDS011;56411;52.964;10.540;2024-02-16T16:59:36;13.52;;;8.55;;
16101;SDS011;56411;52.964;10.540;2024-02-16T17:02:06;15.38;;;8.30;;
16101;SDS011;56411;52.964;10.540;2024-02-16T17:04:35;12.85;;;8.40;;
16101;SDS011;56411;52.964;10.540;2024-02-16T17:07:03;13.77;;;8.55;;
16101;SDS011;56411;52.964;10.540;2024-02-16T17:09:31;13.02;;;8.18;;
16101;SDS011;56411;52.964;10.540;2024-02-16T17:11:58;13.43;;;8.55;;
16101;SDS011;56411;52.964;10.540;2024-02-16T17:14:30;14.20;;;8.63;;
16101;SDS011;56411;52.964;10.540;2024-02-16T17:16:59;14.32;;;9.32;;
16101;SDS011;56411;52.964;10.540;2024-02-16T17:19:37;15.57;;;9.13;;
16101;SDS011;56411;52.964;10.540;2024-02-16T17:22:04;13.32;;;8.95;;
16101;SDS011;56411;52.964;10.540;2024-02-16T17:24:31;14.45;;;8.75;;
16101;SDS011;56411;52.964;10.540;2024-02-16T17:26:59;14.40;;;8.95;;
16101;SDS011;56411;52.964;10.540;2024-02-16T17:29:32;14.70;;;9.18;;
16101;SDS011;56411;52.964;10.540;2024-02-16T17:31:59;14.77;;;8.73;;
16101;SDS011;56411;52.964;10.540;2024-02-16T17:34:42;14.82;;;9.15;;
16101;SDS011;56411;52.964;10.540;2024-02-16T17:37:11;14.70;;;8.68;;
16101;SDS011;56411;52.964;10.540;2024-02-16T17:39:39;13.77;;;9.23;;
16101;SDS011;56411;52.964;10.540;2024-02-16T17:42:08;14.30;;;9.00;;
16101;SDS011;56411;52.964;10.540;2024-02-16T17:44:35;13.65;;;8.57;;
16101;SDS011;56411;52.964;10.540;2024-02-16T17:47:03;13.55;;;9.02;;
16101;SDS011;56411;52.964;10.540;2024-02-16T17:49:31;14.65;;;9.25;;
16101;SDS011;56411;52.964;10.540;2024-02-16T17:52:00;15.63;;;8.82;;
16101;SDS011;56411;52.964;10.540;2024-02-16T17:54:27;15.38;;;9.43;;
16101;SDS011;56411;52.964;10.540;2024-02-16T17:56:54;13.98;;;9.02;;
16101;SDS011;56411;52.964;10.540;2024-02-16T17:59:22;12.98;;;8.38;;
16101;SDS011;56411;52.964;10.540;2024-02-16T18:01:49;14.40;;;8.60;;
16101;SDS011;56411;52.964;10.540;2024-02-16T18:04:17;16.30;;;8.88;;
16101;SDS011;56411;52.964;10.540;2024-02-16T18:06:44;13.35;;;9.07;;
16101;SDS011;56411;52.964;10.540;2024-02-16T18:09:12;14.13;;;8.60;;
16101;SDS011;56411;52.964;10.540;2024-02-16T18:11:39;15.30;;;8.88;;
16101;SDS011;56411;52.964;10.540;2024-02-16T18:14:07;14.77;;;8.93;;
16101;SDS011;56411;52.964;10.540;2024-02-16T18:16:34;13.88;;;8.38;;
16101;SDS011;56411;52.964;10.540;2024-02-16T18:19:01;13.88;;;9.20;;
16101;SDS011;56411;52.964;10.540;2024-02-16T18:21:28;14.68;;;8.82;;
16101;SDS011;56411;52.964;10.540;2024-02-16T18:23:56;14.38;;;9.05;;
16101;SDS011;56411;52.964;10.540;2024-02-16T18:26:24;15.10;;;8.77;;
16101;SDS011;56411;52.964;10.540;2024-02-16T18:28:53;13.88;;;8.18;;
16101;SDS011;56411;52.964;10.540;2024-02-16T18:31:20;13.15;;;8.68;;
16101;SDS011;56411;52.964;10.540;2024-02-16T18:33:47;12.65;;;7.03;;
16101;SDS011;56411;52.964;10.540;2024-02-16T18:36:14;12.27;;;6.45;;
16101;SDS011;56411;52.964;10.540;2024-02-16T18:38:41;11.10;;;6.03;;
16101;SDS011;56411;52.964;10.540;2024-02-16T18:41:09;10.70;;;5.65;;
16101;SDS011;56411;52.964;10.540;2024-02-16T18:43:38;9.73;;;5.03;;
16101;SDS011;56411;52.964;10.540;2024-02-16T18:46:05;10.40;;;5.55;;
16101;SDS011;56411;52.964;10.540;2024-02-16T18:48:32;11.32;;;5.13;;
16101;SDS011;56411;52.964;10.540;2024-02-16T18:50:59;10.05;;;4.93;;
16101;SDS011;56411;52.964;10.540;2024-02-16T18:53:27;9.68;;;4.68;;
16101;SDS011;56411;52.964;10.540;2024-02-16T18:55:55;8.27;;;4.40;;
16101;SDS011;56411;52.964;10.540;2024-02-16T18:58:22;9.18;;;4.78;;
16101;SDS011;56411;52.964;10.540;2024-02-16T19:00:59;8.63;;;4.15;;
16101;SDS011;56411;52.964;10.540;2024-02-16T19:04:02;7.65;;;4.13;;
16101;SDS011;56411;52.964;10.540;2024-02-16T19:06:31;7.47;;;3.70;;
16101;SDS011;56411;52.964;10.540;2024-02-16T19:08:58;7.55;;;3.40;;
16101;SDS011;56411;52.964;10.540;2024-02-16T19:11:26;7.53;;;3.70;;
16101;SDS011;56411;52.964;10.540;2024-02-16T19:13:53;8.02;;;3.90;;
16101;SDS011;56411;52.964;10.540;2024-02-16T19:16:22;6.07;;;3.33;;
16101;SDS011;56411;52.964;10.540;2024-02-16T19:18:49;6.78;;;3.25;;
16101;SDS011;56411;52.964;10.540;2024-02-16T19:21:16;5.85;;;3.00;;
16101;SDS011;56411;52.964;10.540;2024-02-16T19:23:43;5.43;;;2.90;;
16101;SDS011;56411;52.964;10.540;2024-02-16T19:26:10;4.45;;;2.80;;
16101;SDS011;56411;52.964;10.540;2024-02-16T19:28:38;5.68;;;2.88;;
16101;SDS011;56411;52.964;10.540;2024-02-16T19:31:05;6.00;;;2.78;;
16101;SDS011;56411;52.964;10.540;2024-02-16T19:33:35;4.63;;;2.55;;
16101;SDS011;56411;52.964;10.540;2024-02-16T19:36:02;5.18;;;2.50;;
16101;SDS011;56411;52.964;10.540;2024-02-16T19:38:30;6.18;;;2.88;;
16101;SDS011;56411;52.964;10.540;2024-02-16T19:40:58;7.20;;;3.05;;
16101;SDS011;56411;52.964;10.540;2024-02-16T19:43:26;7.45;;;3.13;;
16101;SDS011;56411;52.964;10.540;2024-02-16T19:45:54;6.32;;;2.90;;
16101;SDS011;56411;52.964;10.540;2024-02-16T19:48:21;6.35;;;2.58;;
16101;SDS011;56411;52.964;10.540;2024-02-16T19:50:50;4.38;;;2.55;;
16101;SDS011;56411;52.964;10.540;2024-02-16T19:53:18;3.47;;;2.30;;
16101;SDS011;56411;52.964;10.540;2024-02-16T19:55:45;4.93;;;2.30;;
16101;SDS011;56411;52.964;10.540;2024-02-16T19:58:13;3.20;;;2.42;;
16101;SDS011;56411;52.964;10.540;2024-02-16T20:00:41;6.03;;;2.83;;
16101;SDS011;56411;52.964;10.540;2024-02-16T20:03:11;4.55;;;2.42;;
16101;SDS011;56411;52.964;10.540;2024-02-16T20:05:38;3.85;;;2.35;;
16101;SDS011;56411;52.964;10.540;2024-02-16T20:08:08;5.53;;;2.40;;
16101;SDS011;56411;52.964;10.540;2024-02-16T20:10:35;4.43;;;2.60;;
16101;SDS011;56411;52.964;10.540;2024-02-16T20:13:03;4.45;;;2.65;;
16101;SDS011;56411;52.964;10.540;2024-02-16T20:15:31;5.45;;;2.70;;
16101;SDS011;56411;52.964;10.540;2024-02-16T20:17:59;4.47;;;2.80;;
16101;SDS011;56411;52.964;10.540;2024-02-16T20:20:26;5.88;;;3.03;;
16101;SDS011;56411;52.964;10.540;2024-02-16T20:22:54;6.68;;;3.00;;
16101;SDS011;56411;52.964;10.540;2024-02-16T20:25:23;5.80;;;3.22;;
16101;SDS011;56411;52.964;10.540;2024-02-16T20:27:50;5.22;;;3.00;;
16101;SDS011;56411;52.964;10.540;2024-02-16T20:30:19;6.45;;;3.55;;
16101;SDS011;56411;52.964;10.540;2024-02-16T20:32:46;6.80;;;3.60;;
16101;SDS011;56411;52.964;10.540;2024-02-16T20:35:18;6.57;;;3.53;;
16101;SDS011;56411;52.964;10.540;2024-02-16T20:37:46;6.13;;;3.50;;
16101;SDS011;56411;52.964;10.540;2024-02-16T20:40:13;5.47;;;3.38;;
16101;SDS011;56411;52.964;10.540;2024-02-16T20:42:42;7.78;;;3.72;;
16101;SDS011;56411;52.964;10.540;2024-02-16T20:45:13;5.85;;;3.53;;
16101;SDS011;56411;52.964;10.540;2024-02-16T20:47:40;7.45;;;3.50;;
16101;SDS011;56411;52.964;10.540;2024-02-16T20:50:08;6.80;;;3.58;;
16101;SDS011;56411;52.964;10.540;2024-02-16T20:52:35;7.35;;;3.50;;
16101;SDS011;56411;52.964;10.540;2024-02-16T20:55:03;4.97;;;3.20;;
16101;SDS011;56411;52.964;10.540;2024-02-16T20:57:31;7.18;;;3.50;;
16101;SDS011;56411;52.964;10.540;2024-02-16T21:00:00;6.88;;;3.70;;
16101;SDS011;56411;52.964;10.540;2024-02-16T21:02:32;7.53;;;3.65;;
16101;SDS011;56411;52.964;10.540;2024-02-16T21:04:59;7.43;;;3.90;;
16101;SDS011;56411;52.964;10.540;2024-02-16T21:07:28;7.25;;;3.78;;
16101;SDS011;56411;52.964;10.540;2024-02-16T21:09:56;7.75;;;3.83;;
16101;SDS011;56411;52.964;10.540;2024-02-16T21:12:23;8.93;;;3.85;;
16101;SDS011;56411;52.964;10.540;2024-02-16T21:14:53;5.95;;;3.47;;
16101;SDS011;56411;52.964;10.540;2024-02-16T21:17:22;6.43;;;3.45;;
16101;SDS011;56411;52.964;10.540;2024-02-16T21:19:49;6.45;;;3.55;;
16101;SDS011;56411;52.964;10.540;2024-02-16T21:22:17;7.55;;;3.58;;
16101;SDS011;56411;52.964;10.540;2024-02-16T21:24:44;7.88;;;3.70;;
16101;SDS011;56411;52.964;10.540;2024-02-16T21:27:12;8.52;;;4.07;;
16101;SDS011;56411;52.964;10.540;2024-02-16T21:29:42;8.35;;;3.88;;
16101;SDS011;56411;52.964;10.540;2024-02-16T21:32:18;7.28;;;3.90;;
16101;SDS011;56411;52.964;10.540;2024-02-16T21:34:54;8.77;;;4.45;;
16101;SDS011;56411;52.964;10.540;2024-02-16T21:37:22;8.48;;;4.30;;
16101;SDS011;56411;52.964;10.540;2024-02-16T21:39:54;9.05;;;4.65;;
16101;SDS011;56411;52.964;10.540;2024-02-16T21:42:23;8.50;;;4.53;;
16101;SDS011;56411;52.964;10.540;2024-02-16T21:45:01;9.68;;;4.47;;
16101;SDS011;56411;52.964;10.540;2024-02-16T21:47:29;9.52;;;4.35;;
16101;SDS011;56411;52.964;10.540;2024-02-16T21:49:59;7.95;;;4.28;;
16101;SDS011;56411;52.964;10.540;2024-02-16T21:52:26;8.27;;;4.50;;
16101;SDS011;56411;52.964;10.540;2024-02-16T21:54:53;9.10;;;4.60;;
16101;SDS011;56411;52.964;10.540;2024-02-16T21:57:21;9.65;;;4.80;;